Chicota, Texas
Current Conditions -  °F | °C
As of 9:55 PM on Saturday 22 Nov 2014 (Local Time) from KHHW Reporting Station
Light Rain Light Rain  
Wind Chill: 59°   Ceiling: 10000
Heat Index: 59°   Visibility: 5mi
Dew Point: 57°   Wind: 15mph
Humidity: 93%   Direction: 120°ESE
Pressure: 29.74"   Gusts: NA
Location:  33.87°N, 95.57°W
Report Text: KHHW 230355Z AUTO 12013KT 5SM -RA SCT004 SCT011 BKN100 15/14 A2974 RMK AO2 LTG DSNT S T01500138
Loading
Personal Weather Stations






























Interactive Weather Map New forecast layout! Learn more

10-Day Weather Forecast

Advertisements
Track Severe Weather on mobile